Time;durP1;ratioP1;P1;durP2;ratioP2;P2;SDS_P1;SDS_P2;PMS_P1;PMS_P2;Temp;Humidity;BMP_temperature;BMP_pressure;BME280_temperature;BME280_humidity;BME280_pressure;Samples;Min_cycle;Max_cycle;Signal;HPM_P1;HPM_P2
2022/08/14 00:03:28;;;;;;;5.30;4.80;;;;;;;20.74;59.92;96691.84;10475516;28;20060;-59
2022/08/14 00:08:47;;;;;;;4.80;4.40;;;;;;;20.75;59.96;96689.91;10465530;28;20041;-60
2022/08/14 00:14:07;;;;;;;5.68;5.18;;;;;;;20.74;59.94;96678.31;10477719;28;20063;-61
2022/08/14 00:19:26;;;;;;;5.43;4.93;;;;;;;20.74;59.92;96675.59;10455488;28;20061;-60
2022/08/14 00:24:46;;;;;;;5.72;5.22;;;;;;;20.73;59.95;96665.88;10457943;28;20064;-61
2022/08/14 00:30:07;;;;;;;5.18;4.78;;;;;;;20.74;59.93;96662.06;10468019;28;20045;-59
2022/08/14 00:35:27;;;;;;;5.10;4.70;;;;;;;20.74;59.86;96655.88;10447553;28;20052;-61
2022/08/14 00:40:47;;;;;;;5.28;4.88;;;;;;;20.74;59.92;96650.47;10507403;28;20048;-60
2022/08/14 00:46:08;;;;;;;5.50;5.00;;;;;;;20.73;59.95;96649.66;10453359;28;20052;-61
2022/08/14 00:51:32;;;;;;;5.30;4.85;;;;;;;20.73;59.94;96644.22;10494735;28;20041;-61
2022/08/14 00:56:52;;;;;;;5.55;5.15;;;;;;;20.73;60.05;96644.22;10495312;28;20051;-60
2022/08/14 01:02:14;;;;;;;5.50;5.00;;;;;;;20.74;59.88;96653.16;10470452;28;20060;-60
2022/08/14 01:07:34;;;;;;;5.90;5.40;;;;;;;20.73;59.93;96652.34;10484030;28;20060;-60
2022/08/14 01:12:54;;;;;;;9.55;5.20;;;;;;;20.73;59.95;96648.84;10476675;28;20400;-60
2022/08/14 01:23:52;;;;;;;5.13;4.73;;;;;;;20.73;59.97;96644.22;10501376;28;20053;-61
2022/08/14 01:29:12;;;;;;;5.50;5.05;;;;;;;20.72;59.76;96648.06;10488986;28;20051;-60
2022/08/14 01:34:32;;;;;;;5.70;5.20;;;;;;;20.72;59.91;96642.66;10475866;28;20060;-61
2022/08/14 01:39:51;;;;;;;5.80;5.30;;;;;;;20.72;59.92;96647.28;10460654;28;20053;-60
2022/08/14 01:45:13;;;;;;;4.95;4.55;;;;;;;20.72;60.01;96650.78;10473075;28;20056;-58
2022/08/14 01:50:33;;;;;;;5.78;5.28;;;;;;;20.71;60.00;96641.06;10474265;28;20041;-60
2022/08/14 01:55:56;;;;;;;5.50;5.00;;;;;;;20.72;60.01;96639.19;10460630;28;20060;-61
2022/08/14 02:01:17;;;;;;;5.93;5.43;;;;;;;20.72;59.92;96639.19;10476746;28;20052;-60
2022/08/14 02:06:36;;;;;;;5.45;4.95;;;;;;;20.71;60.01;96627.53;10483887;28;20052;-60
2022/08/14 02:11:56;;;;;;;5.40;5.00;;;;;;;20.72;60.04;96634.53;10460144;28;20106;-59
2022/08/14 02:17:15;;;;;;;5.13;4.72;;;;;;;20.71;60.00;96624.81;10486342;28;20041;-60
2022/08/14 02:22:35;;;;;;;5.88;5.28;;;;;;;20.71;59.96;96629.47;10459043;28;20061;-60
2022/08/14 02:27:55;;;;;;;5.45;4.95;;;;;;;20.71;59.83;96632.94;10460379;28;20067;-60
2022/08/14 02:33:14;;;;;;;5.22;4.82;;;;;;;20.71;60.00;96630.25;10464796;28;20056;-60
2022/08/14 02:38:34;;;;;;;5.25;4.85;;;;;;;20.71;59.81;96635.66;10459922;28;20064;-60
2022/08/14 02:43:54;;;;;;;5.35;4.95;;;;;;;20.71;60.06;96624.81;10463853;28;20467;-61
2022/08/14 02:49:13;;;;;;;5.47;4.97;;;;;;;20.71;60.01;96621.34;10472091;28;20087;-60
2022/08/14 02:54:34;;;;;;;5.22;4.72;;;;;;;20.70;59.99;96620.56;10458279;28;20053;-59
2022/08/14 02:59:54;;;;;;;5.60;5.10;;;;;;;20.70;59.91;96607.03;10462837;28;20107;-59
2022/08/14 03:05:14;;;;;;;5.30;4.90;;;;;;;20.70;59.98;96607.03;10472234;28;20040;-60
2022/08/14 03:10:35;;;;;;;5.45;4.95;;;;;;;20.70;59.97;96604.31;10457745;28;20383;-59
2022/08/14 03:15:55;;;;;;;5.30;4.90;;;;;;;20.69;59.99;96597.31;10475096;28;20127;-60
2022/08/14 03:21:17;;;;;;;5.97;4.95;;;;;;;20.70;60.04;96596.19;10490797;28;20071;-60
2022/08/14 03:26:41;;;;;;;5.72;5.22;;;;;;;20.69;60.04;96600.00;10497004;28;20044;-60
2022/08/14 03:32:01;;;;;;;5.60;5.10;;;;;;;20.69;60.18;96600.00;10488921;28;20036;-60
2022/08/14 03:37:20;;;;;;;5.95;5.35;;;;;;;20.69;59.98;96602.72;10503194;28;20056;-60
2022/08/14 03:42:39;;;;;;;5.40;4.95;;;;;;;20.70;60.11;96595.41;10471458;28;20037;-60
2022/08/14 03:48:00;;;;;;;5.60;5.10;;;;;;;20.70;59.99;96598.91;10456396;28;20049;-61
2022/08/14 03:53:19;;;;;;;5.65;5.15;;;;;;;20.69;60.15;96588.41;10456378;28;20059;-60
2022/08/14 03:58:46;;;;;;;5.90;5.30;;;;;;;20.69;60.08;96583.78;10473711;28;20052;-60
2022/08/14 04:04:06;;;;;;;5.43;5.03;;;;;;;20.69;59.96;96586.47;10461680;28;20450;-59
2022/08/14 04:09:26;;;;;;;6.10;5.60;;;;;;;20.68;60.04;96582.19;10496704;28;20052;-60
2022/08/14 04:14:45;;;;;;;5.70;5.20;;;;;;;20.68;60.10;96581.41;10492037;28;20369;-60
2022/08/14 04:20:06;;;;;;;6.25;5.65;;;;;;;20.68;60.11;96579.50;10474923;28;20053;-60
2022/08/14 04:25:25;;;;;;;6.20;5.60;;;;;;;20.68;60.13;96584.91;10495827;28;20057;-61
2022/08/14 04:30:45;;;;;;;6.25;5.68;;;;;;;20.68;60.23;96579.50;10477584;28;20044;-60
2022/08/14 04:36:04;;;;;;;5.85;5.35;;;;;;;20.69;60.28;96581.06;10503172;28;20094;-60
2022/08/14 04:52:41;;;;;;;;;;;;;;;20.52;66.05;96592.06;10503249;28;20056;-61
2022/08/14 04:58:03;;;;;;;11.30;10.10;;;;;;;20.47;65.82;96586.88;10493833;28;19920;-61
2022/08/14 05:03:32;;;;;;;11.75;10.63;;;;;;;20.41;66.49;96590.91;10480149;28;20049;-61
2022/08/14 05:08:52;;;;;;;11.38;10.27;;;;;;;20.37;66.91;96587.31;10502381;28;20048;-61
2022/08/14 05:14:11;;;;;;;11.82;10.80;;;;;;;20.35;67.12;96576.81;10514986;28;20491;-61
2022/08/14 05:19:31;;;;;;;12.77;11.55;;;;;;;20.35;67.37;96571.41;10478186;28;20048;-60
2022/08/14 05:24:51;;;;;;;11.95;10.75;;;;;;;20.33;67.67;96571.72;10489223;28;20052;-61
2022/08/14 05:30:11;;;;;;;12.75;10.75;;;;;;;20.33;67.69;96570.94;10470310;28;20048;-60
2022/08/14 05:35:31;;;;;;;11.63;10.52;;;;;;;20.31;67.96;96576.69;10462056;28;20052;-60
2022/08/14 05:40:50;;;;;;;11.70;10.60;;;;;;;20.30;67.96;96575.09;10491939;28;20052;-61
2022/08/14 05:46:17;;;;;;;11.30;10.20;;;;;;;20.24;68.47;96557.50;10513538;28;20056;-60
2022/08/14 05:51:36;;;;;;;12.00;10.90;;;;;;;20.24;68.60;96557.50;10467390;28;20180;-61
2022/08/14 05:56:56;;;;;;;11.35;10.23;;;;;;;20.24;68.59;96557.50;10472340;28;20053;-61
2022/08/14 06:02:15;;;;;;;12.05;10.98;;;;;;;20.22;69.22;96550.84;10461386;28;20099;-60
2022/08/14 06:07:36;;;;;;;12.02;10.82;;;;;;;20.20;69.89;96551.19;10486587;28;20495;-60
2022/08/14 06:13:02;;;;;;;12.50;11.43;;;;;;;20.20;69.94;96550.41;10478817;28;20032;-60
2022/08/14 06:18:21;;;;;;;12.55;11.35;;;;;;;20.21;70.36;96550.06;10500723;28;20052;-60
2022/08/14 06:23:41;;;;;;;12.55;11.32;;;;;;;20.22;70.59;96548.16;10481070;28;20056;-60
2022/08/14 06:29:00;;;;;;;12.55;11.35;;;;;;;20.22;70.79;96534.63;10470937;28;20386;-60
2022/08/14 06:34:19;;;;;;;12.75;11.45;;;;;;;20.22;71.38;96526.50;10459434;28;20057;-61
2022/08/14 06:39:39;;;;;;;13.57;12.10;;;;;;;20.22;71.38;96521.88;10443980;28;20053;-59
2022/08/14 06:45:00;;;;;;;13.50;12.27;;;;;;;20.24;71.23;96532.38;10448867;28;20122;-60
2022/08/14 06:50:21;;;;;;;14.10;12.63;;;;;;;20.28;70.98;96530.56;10491876;28;20056;-57
2022/08/14 06:55:42;;;;;;;12.98;11.57;;;;;;;20.30;71.31;96521.00;10472555;28;20048;-60
2022/08/14 07:06:40;;;;;;;14.63;13.18;;;;;;;20.34;71.27;96513.78;10458682;28;20053;-61
2022/08/14 07:11:59;;;;;;;12.68;11.57;;;;;;;20.37;70.57;96522.38;10469096;28;20059;-61
2022/08/14 07:17:19;;;;;;;13.15;11.93;;;;;;;20.39;70.22;96520.91;10465855;28;20412;-59
2022/08/14 07:22:38;;;;;;;12.20;11.00;;;;;;;20.42;69.52;96522.91;10459969;28;20547;-59
2022/08/14 07:27:57;;;;;;;9.88;8.88;;;;;;;20.43;68.90;96515.63;10501068;28;20059;-60
2022/08/14 07:33:18;;;;;;;10.93;9.93;;;;;;;20.45;68.41;96511.44;10485995;28;20056;-59
2022/08/14 07:38:39;;;;;;;10.18;9.20;;;;;;;20.47;68.15;96511.09;10495417;28;20053;-58
2022/08/14 07:43:59;;;;;;;11.07;9.30;;;;;;;20.49;67.99;96515.03;10498992;28;20049;-59
2022/08/14 07:49:20;;;;;;;10.95;9.90;;;;;;;20.50;67.62;96515.84;10468932;28;20049;-60
2022/08/14 07:54:40;;;;;;;11.30;10.20;;;;;;;20.50;67.38;96502.31;10470174;28;20067;-59
2022/08/14 08:00:01;;;;;;;11.65;9.80;;;;;;;20.52;67.13;96494.63;10447737;28;20045;-59
2022/08/14 08:05:23;;;;;;;12.43;9.73;;;;;;;20.52;66.94;96500.03;10469172;28;20048;-60
2022/08/14 08:10:43;;;;;;;19.75;11.02;;;;;;;20.53;66.75;96490.81;10468204;28;20041;-57
2022/08/14 08:16:05;;;;;;;27.33;11.70;;;;;;;20.53;66.62;96490.81;10488856;28;20056;-59
2022/08/14 08:21:25;;;;;;;19.33;10.45;;;;;;;20.53;66.52;96491.59;10469247;28;20095;-59
2022/08/14 08:26:44;;;;;;;16.15;10.20;;;;;;;20.54;66.46;96504.00;10477986;28;20049;-59
2022/08/14 08:32:04;;;;;;;18.15;10.20;;;;;;;20.54;66.47;96506.72;10480968;28;20053;-60
2022/08/14 08:37:28;;;;;;;14.48;10.75;;;;;;;20.56;66.27;96500.94;10472668;28;20053;-59
2022/08/14 08:42:47;;;;;;;14.77;10.05;;;;;;;20.57;66.29;96501.75;10474121;28;20057;-59
2022/08/14 08:48:07;;;;;;;17.13;10.88;;;;;;;20.56;66.17;96498.25;10448546;28;20131;-61
2022/08/14 08:53:32;;;;;;;15.77;9.55;;;;;;;20.57;66.14;96491.72;10457710;28;20113;-60
2022/08/14 08:58:51;;;;;;;14.55;9.32;;;;;;;20.57;66.04;96493.63;10455239;28;20048;-60
2022/08/14 09:04:13;;;;;;;12.15;9.10;;;;;;;20.59;65.95;96496.78;10455309;28;20385;-60
2022/08/14 09:09:33;;;;;;;15.80;9.88;;;;;;;20.57;65.82;96478.19;10465954;28;20057;-59
2022/08/14 09:14:54;;;;;;;15.45;9.65;;;;;;;20.58;66.00;96477.06;10455415;28;20053;-60
2022/08/14 09:20:13;;;;;;;31.35;13.57;;;;;;;20.61;66.17;96468.28;10458244;28;20049;-60
2022/08/14 09:25:34;;;;;;;21.38;12.43;;;;;;;20.63;66.53;96478.78;10485886;28;20040;-59
2022/08/14 09:30:54;;;;;;;21.65;12.35;;;;;;;20.65;66.76;96471.91;10469469;28;20495;-61
2022/08/14 09:36:32;;;;;;;20.42;12.48;;;;;;;20.67;67.16;96469.63;10454505;28;20037;-60
2022/08/14 09:42:20;;;;;;;15.43;12.13;;;;;;;20.67;67.50;96453.41;10473178;28;20064;-59
2022/08/14 09:47:47;;;;;;;;;;;;;;;20.69;67.69;96451.13;10440165;28;20045;-59
2022/08/14 09:53:07;;;;;;;13.30;11.93;;;;;;;20.70;67.47;96443.81;10473083;28;20387;-59
2022/08/14 09:58:41;;;;;;;12.15;10.85;;;;;;;20.70;67.41;96433.00;10465703;28;20044;-57
2022/08/14 10:04:06;;;;;;;20.70;16.85;;;;;;;20.70;67.38;96427.59;10460426;28;20045;-58
2022/08/14 10:09:26;;;;;;;26.85;19.10;;;;;;;20.69;67.32;96426.78;10462110;28;20053;-59
2022/08/14 10:14:45;;;;;;;24.00;18.70;;;;;;;20.68;67.56;96419.00;10462408;28;20053;-59
2022/08/14 10:20:06;;;;;;;21.42;18.23;;;;;;;20.69;67.46;96415.94;10472841;28;20037;-59
2022/08/14 10:25:39;;;;;;;21.05;16.35;;;;;;;20.70;67.42;96405.94;10466845;28;20041;-58
2022/08/14 10:30:58;;;;;;;17.52;15.18;;;;;;;20.70;67.36;96389.69;10451830;28;20040;-60
2022/08/14 10:36:33;;;;;;;16.20;13.70;;;;;;;20.70;67.28;96387.75;10499091;28;20067;-60
2022/08/14 10:42:04;;;;;;;13.98;12.52;;;;;;;20.70;67.08;96376.94;10486827;28;20034;-59
2022/08/14 10:47:34;;;;;;;12.70;11.40;;;;;;;20.71;66.74;96383.91;10457445;28;20052;-60
2022/08/14 10:52:58;;;;;;;12.30;11.00;;;;;;;20.71;66.64;96369.59;10480048;28;20060;-60
2022/08/14 10:58:26;;;;;;;11.40;10.30;;;;;;;20.71;66.37;96375.78;10463522;28;20397;-60
2022/08/14 11:03:47;;;;;;;11.48;9.57;;;;;;;20.71;66.10;96370.38;10484820;28;20059;-60
2022/08/14 11:09:11;;;;;;;9.93;8.90;;;;;;;20.71;65.88;96366.91;10480128;28;20055;-60
2022/08/14 11:14:30;;;;;;;9.48;8.68;;;;;;;20.72;65.58;96365.78;10458115;28;20045;-60
2022/08/14 11:19:56;;;;;;;9.30;8.50;;;;;;;20.72;65.57;96354.94;10457057;28;20123;-60
2022/08/14 11:25:15;;;;;;;9.00;8.20;;;;;;;20.72;65.29;96353.03;10483012;28;20071;-60
2022/08/14 11:30:39;;;;;;;8.77;7.97;;;;;;;20.72;65.06;96342.19;10484546;28;20052;-59
2022/08/14 11:36:04;;;;;;;9.25;8.32;;;;;;;20.73;65.10;96351.09;10482095;28;20048;-60
2022/08/14 11:41:26;;;;;;;8.63;7.82;;;;;;;20.73;64.82;96346.47;10496257;28;20056;-60
2022/08/14 11:46:45;;;;;;;8.82;7.80;;;;;;;20.73;64.90;96345.69;10472157;28;20415;-58
2022/08/14 11:52:05;;;;;;;8.65;7.85;;;;;;;20.74;64.70;96345.34;10489544;28;20408;-60
2022/08/14 11:57:25;;;;;;;8.57;7.70;;;;;;;20.74;64.59;96337.22;10476389;28;20045;-59
2022/08/14 12:02:53;;;;;;;8.02;7.32;;;;;;;20.74;64.33;96325.63;10469160;28;20051;-60
2022/08/14 12:08:12;;;;;;;8.83;7.93;;;;;;;20.74;64.24;96320.97;10443490;28;20049;-59
2022/08/14 12:13:32;;;;;;;8.85;7.32;;;;;;;20.76;64.30;96315.22;10456072;28;20057;-59
2022/08/14 12:18:56;;;;;;;8.27;7.47;;;;;;;20.77;63.91;96305.97;10459064;28;20071;-60
2022/08/14 12:24:16;;;;;;;7.93;7.15;;;;;;;20.77;64.10;96299.78;10474176;28;20057;-60
2022/08/14 12:29:35;;;;;;;8.23;7.00;;;;;;;20.77;63.94;96303.25;10482876;28;20056;-60
2022/08/14 12:34:54;;;;;;;8.02;7.30;;;;;;;20.78;64.05;96306.75;10483782;28;20385;-60
2022/08/14 12:40:15;;;;;;;8.20;7.38;;;;;;;20.76;64.00;96290.88;10454921;28;20049;-60
2022/08/14 12:45:35;;;;;;;7.75;6.97;;;;;;;20.78;63.91;96282.38;10451372;28;20425;-58
2022/08/14 12:50:55;;;;;;;7.78;7.07;;;;;;;20.78;63.85;96277.78;10472834;28;20377;-58
2022/08/14 12:56:18;;;;;;;7.40;6.70;;;;;;;20.80;63.74;96269.31;10466088;28;20095;-60
2022/08/14 13:01:39;;;;;;;7.43;6.72;;;;;;;20.81;63.83;96260.06;10462524;28;20106;-59
2022/08/14 13:07:03;;;;;;;7.10;6.50;;;;;;;20.80;63.74;96256.56;10465150;28;20041;-60
2022/08/14 13:12:28;;;;;;;7.05;6.45;;;;;;;20.80;63.75;96244.97;10462678;28;20061;-60
2022/08/14 13:17:50;;;;;;;7.43;6.78;;;;;;;20.80;63.49;96247.66;10466421;28;20044;-60
2022/08/14 13:23:12;;;;;;;7.10;6.50;;;;;;;20.81;63.49;96235.69;10458975;28;20110;-60
2022/08/14 13:28:34;;;;;;;7.57;6.88;;;;;;;20.81;63.28;96225.63;10460777;28;20045;-59
2022/08/14 13:33:54;;;;;;;7.30;6.63;;;;;;;20.82;63.20;96227.22;10480199;28;20060;-60
2022/08/14 13:39:22;;;;;;;7.53;6.35;;;;;;;20.82;63.28;96226.44;10461416;28;20115;-60
2022/08/14 13:44:43;;;;;;;7.40;6.68;;;;;;;20.81;63.21;96225.63;10448281;28;20512;-60
2022/08/14 13:50:07;;;;;;;7.60;6.90;;;;;;;20.81;63.17;96212.09;10476881;28;20048;-59
2022/08/14 13:55:29;;;;;;;7.45;6.75;;;;;;;20.82;63.13;96218.31;10452834;28;20041;-59
2022/08/14 14:00:54;;;;;;;6.88;6.18;;;;;;;20.81;63.13;96209.38;10460507;28;20045;-60
2022/08/14 14:06:17;;;;;;;7.50;6.80;;;;;;;20.81;62.95;96195.84;10476742;28;20402;-60
2022/08/14 14:11:37;;;;;;;7.93;7.22;;;;;;;20.82;63.09;96205.56;10472942;28;20045;-60
2022/08/14 14:16:56;;;;;;;7.30;6.55;;;;;;;20.82;63.38;96199.38;10460221;28;20053;-59
2022/08/14 14:22:16;;;;;;;7.30;6.60;;;;;;;20.81;63.22;96187.75;10464709;28;20511;-60
2022/08/14 14:27:36;;;;;;;8.50;7.28;;;;;;;20.83;63.13;96179.28;10454242;28;20059;-59
2022/08/14 14:32:56;;;;;;;8.05;7.28;;;;;;;20.85;63.34;96179.72;10468734;28;20500;-60
2022/08/14 14:38:16;;;;;;;8.32;6.75;;;;;;;20.88;63.40;96173.63;10458557;28;20048;-60
2022/08/14 14:43:43;;;;;;;7.40;6.80;;;;;;;20.89;63.31;96164.34;10471336;28;20523;-60
2022/08/14 14:49:06;;;;;;;8.82;7.53;;;;;;;20.91;63.47;96162.88;10461978;28;20060;-59
2022/08/14 14:54:25;;;;;;;7.82;7.13;;;;;;;20.92;63.53;96169.06;10471690;28;20405;-60
2022/08/14 14:59:45;;;;;;;7.35;6.75;;;;;;;20.95;63.68;96168.38;10475914;28;20497;-60
2022/08/14 15:05:06;;;;;;;7.40;6.65;;;;;;;20.96;63.68;96164.53;10462572;28;20099;-59
2022/08/14 15:10:27;;;;;;;7.70;7.00;;;;;;;20.96;63.68;96161.81;10479661;28;20049;-59
2022/08/14 15:15:47;;;;;;;7.47;6.80;;;;;;;20.96;63.86;96159.13;10484227;28;20062;-60
2022/08/14 15:21:06;;;;;;;7.75;6.90;;;;;;;20.96;64.19;96147.50;10469338;28;20052;-59
2022/08/14 15:26:25;;;;;;;7.43;6.80;;;;;;;20.96;64.08;96145.59;10491490;28;20381;-60
2022/08/14 15:31:44;;;;;;;7.55;6.85;;;;;;;20.98;64.23;96153.34;10497193;28;20051;-60
2022/08/14 15:37:05;;;;;;;7.78;7.07;;;;;;;20.99;64.28;96147.56;10481967;28;20107;-60
2022/08/14 15:42:25;;;;;;;7.88;7.28;;;;;;;21.02;64.57;96148.81;10457925;28;20052;-60
2022/08/14 15:47:44;;;;;;;7.90;7.20;;;;;;;21.03;64.46;96132.22;10462079;28;20495;-60
2022/08/14 15:53:04;;;;;;;7.70;7.00;;;;;;;21.06;64.46;96120.69;10456949;28;20481;-60
2022/08/14 15:58:24;;;;;;;7.95;7.00;;;;;;;21.08;64.39;96123.81;10443894;28;20115;-60
2022/08/14 16:03:43;;;;;;;7.45;6.85;;;;;;;21.09;64.44;96128.13;10460568;28;20057;-60
2022/08/14 16:09:03;;;;;;;8.00;7.30;;;;;;;21.12;64.64;96124.69;10456955;28;20053;-60
2022/08/14 16:14:22;;;;;;;7.97;7.28;;;;;;;21.14;64.64;96127.84;10456624;28;20056;-60
2022/08/14 16:19:46;;;;;;;7.72;7.03;;;;;;;21.13;64.55;96123.56;10460490;28;20041;-60
2022/08/14 16:25:07;;;;;;;8.38;7.57;;;;;;;21.12;64.72;96111.16;10467985;28;20541;-59
2022/08/14 16:30:28;;;;;;;7.57;6.88;;;;;;;21.11;64.74;96114.19;10468644;28;20045;-59
2022/08/14 16:35:50;;;;;;;7.53;6.82;;;;;;;21.11;64.88;96111.50;10458827;28;20076;-60
2022/08/14 16:41:15;;;;;;;7.68;6.97;;;;;;;21.10;64.84;96104.53;10469179;28;20049;-59
2022/08/14 16:46:38;;;;;;;8.20;7.40;;;;;;;21.10;64.91;96102.59;10470423;28;20056;-60
2022/08/14 16:51:58;;;;;;;8.35;7.43;;;;;;;21.10;65.04;96107.22;10457328;28;20065;-59
2022/08/14 16:57:21;;;;;;;6.85;6.20;;;;;;;21.09;65.06;96103.75;10469042;28;20110;-60
2022/08/14 17:02:41;;;;;;;7.63;6.90;;;;;;;21.09;65.06;96106.44;10468482;28;20052;-60
2022/08/14 17:08:17;;;;;;;7.47;6.88;;;;;;;21.10;64.94;96102.59;10495815;28;20056;-60
2022/08/14 17:13:39;;;;;;;7.78;6.97;;;;;;;21.11;65.07;96090.63;10508321;28;20063;-60
2022/08/14 17:19:02;;;;;;;7.13;6.50;;;;;;;21.11;64.94;96087.13;10503609;28;20048;-60
2022/08/14 17:24:22;;;;;;;7.28;6.68;;;;;;;21.10;64.80;96090.97;10484470;28;20065;-59
2022/08/14 17:29:42;;;;;;;7.75;7.13;;;;;;;21.09;64.84;96092.91;10517190;28;20039;-60
2022/08/14 17:35:02;;;;;;;7.32;6.63;;;;;;;21.09;64.93;96095.63;10514643;28;20048;-58
2022/08/14 17:40:23;;;;;;;7.43;6.72;;;;;;;21.08;64.76;96091.31;10502250;28;20052;-60
2022/08/14 17:45:44;;;;;;;7.43;6.72;;;;;;;21.08;64.80;96087.84;10459653;28;20409;-60
2022/08/14 17:51:06;;;;;;;7.35;6.68;;;;;;;21.08;64.68;96090.53;10446186;28;20068;-60
2022/08/14 17:56:29;;;;;;;7.57;6.82;;;;;;;21.07;64.59;96078.94;10461624;28;20052;-59
2022/08/14 18:01:49;;;;;;;8.27;7.47;;;;;;;21.07;64.54;96070.81;10464673;28;20114;-59
2022/08/14 18:07:11;;;;;;;7.90;7.20;;;;;;;21.06;64.33;96082.75;10461399;28;20059;-60
2022/08/14 18:12:34;;;;;;;8.27;6.95;;;;;;;21.06;64.45;96079.28;10464014;28;20606;-60
2022/08/14 18:17:53;;;;;;;8.07;7.30;;;;;;;21.05;64.27;96086.63;10462719;28;20048;-60
2022/08/14 18:23:13;;;;;;;10.32;9.32;;;;;;;21.05;64.20;96080.41;10459689;28;20059;-60
2022/08/14 18:28:33;;;;;;;9.38;8.40;;;;;;;21.05;64.36;96092.03;10478028;28;20045;-59
2022/08/14 18:33:54;;;;;;;8.98;8.18;;;;;;;21.04;64.33;96062.59;10446417;28;20431;-60
2022/08/14 18:39:28;;;;;;;9.48;8.48;;;;;;;21.04;64.22;96071.50;10461002;28;20057;-60
2022/08/14 18:44:57;;;;;;;10.18;8.15;;;;;;;21.04;64.00;96082.31;10465286;28;20107;-59
2022/08/14 18:50:23;;;;;;;9.40;8.45;;;;;;;21.02;64.05;96079.19;10441083;28;20056;-59
2022/08/14 18:55:54;;;;;;;8.00;7.18;;;;;;;20.97;65.01;96090.28;10459659;28;20330;-59
2022/08/14 19:01:22;;;;;;;8.70;7.80;;;;;;;20.90;65.39;96084.72;10442189;28;20052;-58
2022/08/14 19:06:45;;;;;;;8.90;6.88;;;;;;;20.84;65.78;96086.09;10450126;28;20060;-59
2022/08/14 19:12:05;;;;;;;7.78;6.97;;;;;;;20.76;65.80;96085.16;10477493;28;20037;-57
2022/08/14 19:17:44;;;;;;;7.90;7.10;;;;;;;20.64;66.27;96093.31;10460063;28;20048;-59
2022/08/14 19:23:15;;;;;;;8.55;7.13;;;;;;;20.62;66.60;96088.28;10460654;28;20061;-61
2022/08/14 19:28:49;;;;;;;6.95;6.35;;;;;;;20.54;66.52;96084.56;10463204;28;20051;-58
2022/08/14 19:34:08;;;;;;;7.90;7.10;;;;;;;20.47;66.55;96081.69;10451291;28;20157;-58
2022/08/14 19:39:51;;;;;;;8.15;7.35;;;;;;;20.41;66.46;96079.59;10471621;28;20040;-58
2022/08/14 19:45:14;;;;;;;8.20;6.60;;;;;;;20.39;66.76;96081.84;10469346;28;20044;-59
2022/08/14 19:50:33;;;;;;;7.53;6.82;;;;;;;20.39;66.57;96079.16;10507188;28;20033;-57
2022/08/14 19:55:57;;;;;;;7.68;6.97;;;;;;;20.38;66.77;96085.69;10468300;28;20057;-58
2022/08/14 20:01:28;;;;;;;7.05;6.35;;;;;;;20.28;66.78;96093.16;10455964;28;20053;-60
2022/08/14 20:06:49;;;;;;;7.32;6.70;;;;;;;20.23;66.58;96093.44;10484397;28;20040;-57
2022/08/14 20:12:19;;;;;;;8.50;7.47;;;;;;;20.18;66.99;96080.13;10468335;28;20412;-58
2022/08/14 20:17:39;;;;;;;7.93;7.22;;;;;;;20.21;66.99;96082.16;10481505;28;20048;-56
2022/08/14 20:23:01;;;;;;;7.60;6.88;;;;;;;20.26;66.86;96089.22;10481042;28;20448;-57
2022/08/14 20:28:28;;;;;;;8.90;7.13;;;;;;;20.24;66.51;96092.28;10457050;28;20060;-58
2022/08/14 20:34:04;;;;;;;6.95;6.35;;;;;;;20.33;66.09;96094.84;10499849;28;20075;-57
2022/08/14 20:39:25;;;;;;;8.23;7.10;;;;;;;20.39;65.82;96087.28;10498577;28;20045;-58
2022/08/14 20:50:24;;;;;;;7.65;6.93;;;;;;;20.44;65.49;96087.78;10466501;28;20037;-58
2022/08/14 20:55:43;;;;;;;8.02;6.75;;;;;;;20.44;65.36;96081.59;10500927;28;20037;-57
2022/08/14 21:01:23;;;;;;;7.35;6.65;;;;;;;20.43;65.42;96071.91;10429986;28;20053;-58
2022/08/14 21:06:42;;;;;;;7.05;6.45;;;;;;;20.42;65.17;96076.50;10438574;28;20057;-58
2022/08/14 21:12:03;;;;;;;7.18;6.57;;;;;;;20.44;65.41;96065.34;10471200;28;20048;-57
2022/08/14 21:17:22;;;;;;;6.93;6.32;;;;;;;20.42;65.19;96065.69;10448737;28;20061;-58
2022/08/14 21:22:43;;;;;;;7.53;6.93;;;;;;;20.42;65.23;96065.69;10493903;28;20106;-58
2022/08/14 21:28:07;;;;;;;7.80;7.10;;;;;;;20.42;64.94;96065.69;10464995;28;20502;-58
2022/08/14 21:33:26;;;;;;;7.65;6.95;;;;;;;20.41;65.06;96066.84;10508232;28;20044;-57
2022/08/14 21:38:46;;;;;;;7.57;6.88;;;;;;;20.41;64.86;96074.97;10499612;28;20063;-58
2022/08/14 21:44:05;;;;;;;8.07;7.38;;;;;;;20.38;64.84;96059.41;10458684;28;20477;-58
2022/08/14 21:49:29;;;;;;;7.80;7.10;;;;;;;20.36;64.57;96067.09;10501133;28;20037;-58
2022/08/14 21:54:50;;;;;;;7.78;7.03;;;;;;;20.35;64.63;96063.59;10507740;28;20033;-58
2022/08/14 22:00:20;;;;;;;7.70;6.93;;;;;;;20.36;64.91;96072.50;10477298;28;20052;-58
2022/08/14 22:05:40;;;;;;;7.57;6.88;;;;;;;20.32;65.05;96058.88;10474918;28;20488;-57
2022/08/14 22:10:59;;;;;;;7.70;6.93;;;;;;;20.33;65.17;96068.56;10464969;28;20048;-58
2022/08/14 22:16:22;;;;;;;8.15;7.20;;;;;;;20.34;65.24;96066.66;10473233;28;20052;-58
2022/08/14 22:21:43;;;;;;;8.45;7.65;;;;;;;20.33;65.26;96055.03;10472585;28;20065;-58
2022/08/14 22:27:03;;;;;;;8.10;7.30;;;;;;;20.32;65.26;96049.97;10511299;28;20395;-57
2022/08/14 22:32:23;;;;;;;8.57;7.35;;;;;;;20.30;65.17;96042.22;10495303;28;20052;-58
2022/08/14 22:37:42;;;;;;;8.05;7.30;;;;;;;20.31;65.10;96045.72;10492804;28;20052;-58
2022/08/14 22:43:04;;;;;;;7.70;7.00;;;;;;;20.28;65.37;96046.41;10474034;28;20056;-58
2022/08/14 22:48:24;;;;;;;8.98;7.90;;;;;;;20.27;65.17;96042.91;10479004;28;20404;-56
2022/08/14 22:53:45;;;;;;;7.82;7.07;;;;;;;20.26;64.82;96038.63;10494847;28;20056;-57
2022/08/14 22:59:05;;;;;;;7.72;7.03;;;;;;;20.25;65.01;96039.78;10458395;28;20049;-58
2022/08/14 23:04:26;;;;;;;7.95;7.25;;;;;;;20.24;64.68;96035.47;10457973;28;20058;-58
2022/08/14 23:09:46;;;;;;;7.88;7.18;;;;;;;20.22;64.54;96035.03;10456655;28;20455;-58
2022/08/14 23:15:06;;;;;;;8.18;7.47;;;;;;;20.21;64.77;96033.50;10484079;28;20171;-58
2022/08/14 23:20:27;;;;;;;8.07;7.28;;;;;;;20.20;64.84;96031.13;10489361;28;20059;-57
2022/08/14 23:25:47;;;;;;;7.68;6.97;;;;;;;20.19;64.71;96034.94;10482106;28;20064;-58
2022/08/14 23:31:09;;;;;;;7.90;6.90;;;;;;;20.19;64.76;96035.75;10480913;28;20045;-58
2022/08/14 23:36:30;;;;;;;8.43;7.70;;;;;;;20.18;65.19;96036.88;10485228;28;20037;-58
2022/08/14 23:41:49;;;;;;;8.05;7.05;;;;;;;20.15;65.26;96019.44;10494947;28;20094;-58
2022/08/14 23:47:09;;;;;;;8.35;7.55;;;;;;;20.17;65.30;96015.56;10442571;28;20041;-58
2022/08/14 23:52:34;;;;;;;9.65;8.15;;;;;;;20.15;65.64;96010.53;10468460;28;20423;-58
2022/08/14 23:57:53;;;;;;;8.93;7.85;;;;;;;20.14;65.84;96001.63;10456813;28;20049;-58
